sensor_id;sensor_type;location;lat;lon;timestamp;pressure;altitude;pressure_sealevel;temperature;humidity
52105;BME280;38103;42.776;23.112;2022-11-06T00:00:18;93515.09;;;9.75;87.76
52105;BME280;38103;42.776;23.112;2022-11-06T00:02:44;93519.19;;;9.82;87.50
52105;BME280;38103;42.776;23.112;2022-11-06T00:05:10;93516.78;;;9.81;87.72
52105;BME280;38103;42.776;23.112;2022-11-06T00:07:54;93515.03;;;9.52;89.15
52105;BME280;38103;42.776;23.112;2022-11-06T00:10:20;93514.03;;;9.41;89.83
52105;BME280;38103;42.776;23.112;2022-11-06T00:12:45;93520.13;;;9.42;89.87
52105;BME280;38103;42.776;23.112;2022-11-06T00:15:11;93514.84;;;9.42;89.83
52105;BME280;38103;42.776;23.112;2022-11-06T00:17:37;93519.22;;;9.36;90.17
52105;BME280;38103;42.776;23.112;2022-11-06T00:20:04;93518.38;;;9.30;90.54
52105;BME280;38103;42.776;23.112;2022-11-06T00:22:36;93523.94;;;9.34;90.79
52105;BME280;38103;42.776;23.112;2022-11-06T00:25:03;93525.66;;;9.40;90.35
52105;BME280;38103;42.776;23.112;2022-11-06T00:27:29;93430.38;;;8.90;89.79
52105;BME280;38103;42.776;23.112;2022-11-06T00:29:54;93513.75;;;9.55;89.46
52105;BME280;38103;42.776;23.112;2022-11-06T00:32:20;93504.97;;;9.66;88.77
52105;BME280;38103;42.776;23.112;2022-11-06T00:34:46;93515.34;;;9.73;88.45
52105;BME280;38103;42.776;23.112;2022-11-06T00:37:11;93510.53;;;9.53;88.88
52105;BME280;38103;42.776;23.112;2022-11-06T00:39:37;93507.41;;;9.38;90.52
52105;BME280;38103;42.776;23.112;2022-11-06T00:42:02;93517.56;;;9.30;90.89
52105;BME280;38103;42.776;23.112;2022-11-06T00:44:28;93507.47;;;9.26;90.68
52105;BME280;38103;42.776;23.112;2022-11-06T00:46:53;93509.72;;;9.35;89.90
52105;BME280;38103;42.776;23.112;2022-11-06T00:49:18;93507.66;;;9.37;89.73
52105;BME280;38103;42.776;23.112;2022-11-06T00:51:44;93514.03;;;9.41;89.55
52105;BME280;38103;42.776;23.112;2022-11-06T00:54:10;93510.53;;;9.53;88.53
52105;BME280;38103;42.776;23.112;2022-11-06T00:56:36;93490.78;;;9.38;88.51
52105;BME280;38103;42.776;23.112;2022-11-06T00:59:04;93513.50;;;9.56;88.46
52105;BME280;38103;42.776;23.112;2022-11-06T01:01:37;93412.25;;;8.93;87.33
52105;BME280;38103;42.776;23.112;2022-11-06T01:04:17;93508.13;;;9.34;88.26
52105;BME280;38103;42.776;23.112;2022-11-06T01:06:45;93507.75;;;9.13;89.18
52105;BME280;38103;42.776;23.112;2022-11-06T01:09:13;93499.53;;;9.09;89.10
52105;BME280;38103;42.776;23.112;2022-11-06T01:11:45;93498.38;;;9.05;88.84
52105;BME280;38103;42.776;23.112;2022-11-06T01:14:12;93496.09;;;9.09;88.75
52105;BME280;38103;42.776;23.112;2022-11-06T01:16:38;93496.81;;;8.92;90.08
52105;BME280;38103;42.776;23.112;2022-11-06T01:19:04;93497.91;;;8.79;90.33
52105;BME280;38103;42.776;23.112;2022-11-06T01:21:36;93503.56;;;8.58;90.82
52105;BME280;38103;42.776;23.112;2022-11-06T01:24:10;93508.22;;;8.27;93.38
52105;BME280;38103;42.776;23.112;2022-11-06T01:26:36;93503.16;;;8.37;93.41
52105;BME280;38103;42.776;23.112;2022-11-06T01:29:02;93505.25;;;8.11;94.05
52105;BME280;38103;42.776;23.112;2022-11-06T01:31:30;93445.97;;;7.73;93.81
52105;BME280;38103;42.776;23.112;2022-11-06T01:33:58;93500.53;;;8.13;94.32
52105;BME280;38103;42.776;23.112;2022-11-06T01:36:25;93506.81;;;8.12;94.37
52105;BME280;38103;42.776;23.112;2022-11-06T01:38:59;93493.56;;;8.19;94.24
52105;BME280;38103;42.776;23.112;2022-11-06T01:41:26;93499.75;;;8.01;95.41
52105;BME280;38103;42.776;23.112;2022-11-06T01:46:19;93422.06;;;7.74;93.38
52105;BME280;38103;42.776;23.112;2022-11-06T01:48:50;93499.19;;;7.99;94.50
52105;BME280;38103;42.776;23.112;2022-11-06T01:51:18;93505.69;;;7.84;95.57
52105;BME280;38103;42.776;23.112;2022-11-06T01:53:44;93387.69;;;7.09;97.16
52105;BME280;38103;42.776;23.112;2022-11-06T01:56:11;93504.19;;;7.76;98.59
52105;BME280;38103;42.776;23.112;2022-11-06T01:58:40;93500.09;;;7.80;98.52
52105;BME280;38103;42.776;23.112;2022-11-06T02:01:07;93489.22;;;7.77;98.08
52105;BME280;38103;42.776;23.112;2022-11-06T02:03:34;93504.63;;;7.73;98.44
52105;BME280;38103;42.776;23.112;2022-11-06T02:06:00;93493.53;;;7.71;99.62
52105;BME280;38103;42.776;23.112;2022-11-06T02:08:27;93493.22;;;7.79;99.61
52105;BME280;38103;42.776;23.112;2022-11-06T02:10:52;93443.44;;;7.54;98.46
52105;BME280;38103;42.776;23.112;2022-11-06T02:13:48;93383.03;;;7.35;98.78
52105;BME280;38103;42.776;23.112;2022-11-06T02:27:59;93483.16;;;8.00;98.43
52105;BME280;38103;42.776;23.112;2022-11-06T02:30:33;93489.78;;;8.27;97.87
52105;BME280;38103;42.776;23.112;2022-11-06T02:33:05;93489.88;;;8.32;97.80
52105;BME280;38103;42.776;23.112;2022-11-06T02:38:10;93480.56;;;8.42;97.19
52105;BME280;38103;42.776;23.112;2022-11-06T02:40:45;93472.66;;;8.42;96.76
52105;BME280;38103;42.776;23.112;2022-11-06T02:43:12;93485.75;;;8.36;97.31
52105;BME280;38103;42.776;23.112;2022-11-06T02:45:43;93486.53;;;8.37;98.13
52105;BME280;38103;42.776;23.112;2022-11-06T02:48:10;93485.28;;;8.40;97.97
52105;BME280;38103;42.776;23.112;2022-11-06T02:50:41;93485.50;;;8.50;97.33
52105;BME280;38103;42.776;23.112;2022-11-06T02:53:10;93478.41;;;8.38;97.50
52105;BME280;38103;42.776;23.112;2022-11-06T02:55:46;93485.97;;;8.35;97.92
52105;BME280;38103;42.776;23.112;2022-11-06T02:58:15;93484.63;;;8.32;97.74
52105;BME280;38103;42.776;23.112;2022-11-06T03:00:46;93494.41;;;8.49;97.11
52105;BME280;38103;42.776;23.112;2022-11-06T03:03:21;93494.53;;;8.54;96.77
52105;BME280;38103;42.776;23.112;2022-11-06T03:08:29;93498.88;;;8.48;96.76
52105;BME280;38103;42.776;23.112;2022-11-06T03:11:05;93501.84;;;8.64;95.95
52105;BME280;38103;42.776;23.112;2022-11-06T03:13:47;93511.19;;;8.84;94.00
52105;BME280;38103;42.776;23.112;2022-11-06T03:21:31;93429.56;;;8.19;92.88
52105;BME280;38103;42.776;23.112;2022-11-06T03:24:18;93515.84;;;8.53;93.58
52105;BME280;38103;42.776;23.112;2022-11-06T03:26:51;93519.16;;;8.48;94.11
52105;BME280;38103;42.776;23.112;2022-11-06T03:29:27;93518.03;;;8.44;94.07
52105;BME280;38103;42.776;23.112;2022-11-06T03:32:02;93526.31;;;8.11;96.14
52105;BME280;38103;42.776;23.112;2022-11-06T03:34:43;93495.03;;;7.79;97.82
52105;BME280;38103;42.776;23.112;2022-11-06T03:37:23;93525.16;;;7.83;98.98
52105;BME280;38103;42.776;23.112;2022-11-06T03:39:54;93527.66;;;7.78;99.71
52105;BME280;38103;42.776;23.112;2022-11-06T03:42:26;93461.03;;;7.41;99.65
52105;BME280;38103;42.776;23.112;2022-11-06T03:44:59;93429.25;;;7.31;100.00
52105;BME280;38103;42.776;23.112;2022-11-06T03:47:30;93533.72;;;8.14;100.00
52105;BME280;38103;42.776;23.112;2022-11-06T03:50:06;93528.13;;;8.23;100.00
52105;BME280;38103;42.776;23.112;2022-11-06T03:52:39;93533.50;;;8.28;100.00
52105;BME280;38103;42.776;23.112;2022-11-06T03:55:14;93534.84;;;8.43;100.00
52105;BME280;38103;42.776;23.112;2022-11-06T04:00:14;93526.47;;;8.70;100.00
52105;BME280;38103;42.776;23.112;2022-11-06T04:02:49;93530.81;;;8.76;100.00
52105;BME280;38103;42.776;23.112;2022-11-06T04:05:23;93537.09;;;8.87;100.00
52105;BME280;38103;42.776;23.112;2022-11-06T04:07:51;93538.34;;;8.85;100.00
52105;BME280;38103;42.776;23.112;2022-11-06T04:10:38;93555.78;;;8.86;100.00
52105;BME280;38103;42.776;23.112;2022-11-06T04:13:26;93538.69;;;8.88;100.00
52105;BME280;38103;42.776;23.112;2022-11-06T04:16:12;93542.78;;;8.96;100.00
52105;BME280;38103;42.776;23.112;2022-11-06T04:18:38;93539.97;;;8.86;100.00
52105;BME280;38103;42.776;23.112;2022-11-06T04:26:40;93540.88;;;8.91;100.00
52105;BME280;38103;42.776;23.112;2022-11-06T04:29:19;93522.13;;;8.76;100.00
52105;BME280;38103;42.776;23.112;2022-11-06T04:32:03;93538.09;;;8.98;100.00
52105;BME280;38103;42.776;23.112;2022-11-06T04:37:08;93547.03;;;8.97;100.00
52105;BME280;38103;42.776;23.112;2022-11-06T04:42:46;93548.94;;;9.14;100.00
52105;BME280;38103;42.776;23.112;2022-11-06T04:45:22;93543.28;;;9.22;100.00
52105;BME280;38103;42.776;23.112;2022-11-06T04:47:51;93551.66;;;9.19;100.00
52105;BME280;38103;42.776;23.112;2022-11-06T04:50:19;93386.00;;;7.99;100.00
52105;BME280;38103;42.776;23.112;2022-11-06T04:52:47;93470.78;;;8.66;100.00
52105;BME280;38103;42.776;23.112;2022-11-06T04:55:13;93541.31;;;9.18;100.00
52105;BME280;38103;42.776;23.112;2022-11-06T04:57:38;93538.13;;;9.15;100.00
52105;BME280;38103;42.776;23.112;2022-11-06T05:00:05;93551.66;;;9.19;100.00
52105;BME280;38103;42.776;23.112;2022-11-06T05:02:30;93468.59;;;8.75;100.00
52105;BME280;38103;42.776;23.112;2022-11-06T05:04:56;93551.94;;;9.35;100.00
52105;BME280;38103;42.776;23.112;2022-11-06T05:07:21;93551.47;;;9.38;100.00
52105;BME280;38103;42.776;23.112;2022-11-06T05:09:46;93554.88;;;9.38;100.00
52105;BME280;38103;42.776;23.112;2022-11-06T05:12:12;93558.34;;;9.39;100.00
52105;BME280;38103;42.776;23.112;2022-11-06T05:14:37;93559.84;;;9.35;100.00
52105;BME280;38103;42.776;23.112;2022-11-06T05:17:03;93569.84;;;9.33;100.00
52105;BME280;38103;42.776;23.112;2022-11-06T05:19:28;93572.94;;;9.30;100.00
52105;BME280;38103;42.776;23.112;2022-11-06T05:21:53;93567.78;;;9.35;100.00
52105;BME280;38103;42.776;23.112;2022-11-06T05:24:37;93584.25;;;9.42;100.00
52105;BME280;38103;42.776;23.112;2022-11-06T05:27:03;93588.25;;;9.45;100.00
52105;BME280;38103;42.776;23.112;2022-11-06T05:29:28;93598.47;;;9.41;100.00
52105;BME280;38103;42.776;23.112;2022-11-06T05:31:53;93592.72;;;9.44;100.00
52105;BME280;38103;42.776;23.112;2022-11-06T05:34:19;93590.66;;;9.46;100.00
52105;BME280;38103;42.776;23.112;2022-11-06T05:36:44;93591.97;;;9.61;100.00
52105;BME280;38103;42.776;23.112;2022-11-06T05:39:10;93597.38;;;9.54;100.00
52105;BME280;38103;42.776;23.112;2022-11-06T05:41:35;93593.47;;;9.57;100.00
52105;BME280;38103;42.776;23.112;2022-11-06T05:44:00;93600.38;;;9.58;100.00
52105;BME280;38103;42.776;23.112;2022-11-06T05:46:26;93603.56;;;9.60;100.00
52105;BME280;38103;42.776;23.112;2022-11-06T05:48:51;93610.38;;;9.56;100.00
52105;BME280;38103;42.776;23.112;2022-11-06T05:51:17;93603.66;;;9.65;100.00
52105;BME280;38103;42.776;23.112;2022-11-06T05:53:42;93600.75;;;9.67;100.00
52105;BME280;38103;42.776;23.112;2022-11-06T05:56:07;93608.94;;;9.65;100.00
52105;BME280;38103;42.776;23.112;2022-11-06T05:58:33;93525.38;;;9.24;100.00
52105;BME280;38103;42.776;23.112;2022-11-06T06:00:59;93608.38;;;9.63;100.00
52105;BME280;38103;42.776;23.112;2022-11-06T06:03:24;93603.91;;;9.64;100.00
52105;BME280;38103;42.776;23.112;2022-11-06T06:05:50;93607.66;;;9.68;100.00
52105;BME280;38103;42.776;23.112;2022-11-06T06:08:16;93621.88;;;9.67;100.00
52105;BME280;38103;42.776;23.112;2022-11-06T06:10:44;93625.97;;;9.75;100.00
52105;BME280;38103;42.776;23.112;2022-11-06T06:13:09;93631.81;;;9.77;100.00
52105;BME280;38103;42.776;23.112;2022-11-06T06:15:39;93627.22;;;9.84;100.00
52105;BME280;38103;42.776;23.112;2022-11-06T06:18:06;93622.09;;;9.94;100.00
52105;BME280;38103;42.776;23.112;2022-11-06T06:20:32;93629.78;;;9.96;100.00
52105;BME280;38103;42.776;23.112;2022-11-06T06:22:58;93630.59;;;9.97;100.00
52105;BME280;38103;42.776;23.112;2022-11-06T06:25:24;93592.97;;;9.89;100.00
52105;BME280;38103;42.776;23.112;2022-11-06T06:27:50;93629.47;;;10.10;100.00
52105;BME280;38103;42.776;23.112;2022-11-06T06:30:16;93628.75;;;10.14;100.00
52105;BME280;38103;42.776;23.112;2022-11-06T06:32:42;93549.34;;;9.69;100.00
52105;BME280;38103;42.776;23.112;2022-11-06T06:35:08;93632.69;;;10.29;100.00
52105;BME280;38103;42.776;23.112;2022-11-06T06:37:33;93629.09;;;10.35;100.00
52105;BME280;38103;42.776;23.112;2022-11-06T06:39:59;93637.09;;;10.41;100.00
52105;BME280;38103;42.776;23.112;2022-11-06T06:42:24;93648.16;;;10.55;100.00
52105;BME280;38103;42.776;23.112;2022-11-06T06:44:51;93644.22;;;10.57;100.00
52105;BME280;38103;42.776;23.112;2022-11-06T06:47:17;93654.94;;;10.68;100.00
52105;BME280;38103;42.776;23.112;2022-11-06T06:49:43;93656.47;;;10.64;100.00
52105;BME280;38103;42.776;23.112;2022-11-06T06:52:08;93661.38;;;10.72;100.00
52105;BME280;38103;42.776;23.112;2022-11-06T06:54:34;93658.28;;;10.80;100.00
52105;BME280;38103;42.776;23.112;2022-11-06T06:56:59;93652.03;;;10.87;100.00
52105;BME280;38103;42.776;23.112;2022-11-06T06:59:26;93670.78;;;10.85;100.00
52105;BME280;38103;42.776;23.112;2022-11-06T07:01:52;93663.25;;;10.94;100.00
52105;BME280;38103;42.776;23.112;2022-11-06T07:04:17;93652.19;;;10.97;100.00
52105;BME280;38103;42.776;23.112;2022-11-06T07:06:43;93649.13;;;10.88;100.00
52105;BME280;38103;42.776;23.112;2022-11-06T07:09:08;93666.56;;;11.06;100.00
52105;BME280;38103;42.776;23.112;2022-11-06T07:11:33;93666.09;;;11.10;100.00
52105;BME280;38103;42.776;23.112;2022-11-06T07:13:59;93655.03;;;11.13;100.00
52105;BME280;38103;42.776;23.112;2022-11-06T07:16:25;93664.06;;;11.17;100.00
52105;BME280;38103;42.776;23.112;2022-11-06T07:18:51;93565.41;;;10.54;100.00
52105;BME280;38103;42.776;23.112;2022-11-06T07:21:17;93654.41;;;11.05;100.00
52105;BME280;38103;42.776;23.112;2022-11-06T07:23:44;93670.22;;;11.23;100.00
52105;BME280;38103;42.776;23.112;2022-11-06T07:26:10;93665.22;;;11.26;100.00
52105;BME280;38103;42.776;23.112;2022-11-06T07:28:35;93676.47;;;11.34;100.00
52105;BME280;38103;42.776;23.112;2022-11-06T07:31:05;93670.66;;;11.37;100.00
52105;BME280;38103;42.776;23.112;2022-11-06T07:33:30;93687.13;;;11.44;100.00
52105;BME280;38103;42.776;23.112;2022-11-06T07:36:11;93682.44;;;11.46;100.00
52105;BME280;38103;42.776;23.112;2022-11-06T07:38:38;93688.56;;;11.52;100.00
52105;BME280;38103;42.776;23.112;2022-11-06T07:41:06;93691.59;;;11.61;100.00
52105;BME280;38103;42.776;23.112;2022-11-06T07:43:33;93681.00;;;11.61;100.00
52105;BME280;38103;42.776;23.112;2022-11-06T07:46:00;93704.41;;;11.69;100.00
52105;BME280;38103;42.776;23.112;2022-11-06T07:48:27;93604.38;;;11.04;99.71
52105;BME280;38103;42.776;23.112;2022-11-06T07:50:52;93696.44;;;11.69;99.73
52105;BME280;38103;42.776;23.112;2022-11-06T07:53:17;93690.09;;;11.70;99.34
52105;BME280;38103;42.776;23.112;2022-11-06T07:55:49;93690.59;;;11.67;99.83
52105;BME280;38103;42.776;23.112;2022-11-06T07:58:16;93693.75;;;11.64;100.00
52105;BME280;38103;42.776;23.112;2022-11-06T08:00:49;93691.09;;;11.64;100.00
52105;BME280;38103;42.776;23.112;2022-11-06T08:03:15;93694.28;;;11.66;100.00
52105;BME280;38103;42.776;23.112;2022-11-06T08:05:41;93699.03;;;11.64;100.00
52105;BME280;38103;42.776;23.112;2022-11-06T08:08:07;93706.25;;;11.69;100.00
52105;BME280;38103;42.776;23.112;2022-11-06T08:10:33;93689.81;;;11.67;100.00
52105;BME280;38103;42.776;23.112;2022-11-06T08:12:59;93717.19;;;11.78;100.00
52105;BME280;38103;42.776;23.112;2022-11-06T08:15:25;93722.47;;;11.78;100.00
52105;BME280;38103;42.776;23.112;2022-11-06T08:17:50;93715.41;;;11.83;100.00
52105;BME280;38103;42.776;23.112;2022-11-06T08:20:15;93723.94;;;11.91;100.00
52105;BME280;38103;42.776;23.112;2022-11-06T08:22:41;93718.69;;;11.96;99.75
52105;BME280;38103;42.776;23.112;2022-11-06T08:25:07;93723.50;;;11.99;100.00
52105;BME280;38103;42.776;23.112;2022-11-06T08:27:32;93732.31;;;12.05;99.62
52105;BME280;38103;42.776;23.112;2022-11-06T08:29:58;93722.53;;;12.05;99.19
52105;BME280;38103;42.776;23.112;2022-11-06T08:32:23;93691.66;;;11.94;98.94
52105;BME280;38103;42.776;23.112;2022-11-06T08:34:48;93730.34;;;12.17;98.67
52105;BME280;38103;42.776;23.112;2022-11-06T08:37:14;93733.53;;;12.20;98.14
52105;BME280;38103;42.776;23.112;2022-11-06T08:39:39;93736.75;;;12.22;98.78
52105;BME280;38103;42.776;23.112;2022-11-06T08:42:04;93741.25;;;12.21;98.30
52105;BME280;38103;42.776;23.112;2022-11-06T08:44:31;93736.50;;;12.23;98.08
52105;BME280;38103;42.776;23.112;2022-11-06T08:46:56;93742.34;;;12.25;97.88
52105;BME280;38103;42.776;23.112;2022-11-06T08:49:22;93747.38;;;12.27;97.92
52105;BME280;38103;42.776;23.112;2022-11-06T08:51:47;93750.00;;;12.22;98.35
52105;BME280;38103;42.776;23.112;2022-11-06T08:54:12;93745.53;;;12.27;98.38
52105;BME280;38103;42.776;23.112;2022-11-06T08:56:38;93745.06;;;12.31;98.14
52105;BME280;38103;42.776;23.112;2022-11-06T08:59:05;93671.44;;;11.82;98.31
52105;BME280;38103;42.776;23.112;2022-11-06T09:01:30;93755.97;;;12.34;99.21
52105;BME280;38103;42.776;23.112;2022-11-06T09:03:56;93731.03;;;12.35;98.86
52105;BME280;38103;42.776;23.112;2022-11-06T09:06:21;93751.03;;;12.48;98.19
52105;BME280;38103;42.776;23.112;2022-11-06T09:08:47;93746.06;;;12.52;98.89
52105;BME280;38103;42.776;23.112;2022-11-06T09:11:12;93752.44;;;12.56;98.83
52105;BME280;38103;42.776;23.112;2022-11-06T09:13:38;93757.84;;;12.67;98.72
52105;BME280;38103;42.776;23.112;2022-11-06T09:16:03;93762.28;;;12.61;98.28
52105;BME280;38103;42.776;23.112;2022-11-06T09:18:30;93754.59;;;12.59;99.57
52105;BME280;38103;42.776;23.112;2022-11-06T09:20:56;93755.13;;;12.61;100.00
52105;BME280;38103;42.776;23.112;2022-11-06T09:23:22;93742.34;;;12.53;100.00
52105;BME280;38103;42.776;23.112;2022-11-06T09:25:48;93737.16;;;12.36;100.00
52105;BME280;38103;42.776;23.112;2022-11-06T09:28:13;93740.06;;;12.34;100.00
52105;BME280;38103;42.776;23.112;2022-11-06T09:30:39;93747.97;;;12.29;100.00
52105;BME280;38103;42.776;23.112;2022-11-06T09:33:04;93635.94;;;11.56;100.00
52105;BME280;38103;42.776;23.112;2022-11-06T09:35:32;93772.50;;;12.19;100.00
52105;BME280;38103;42.776;23.112;2022-11-06T09:38:06;93756.03;;;12.17;100.00
52105;BME280;38103;42.776;23.112;2022-11-06T09:45:32;93771.00;;;12.28;100.00
52105;BME280;38103;42.776;23.112;2022-11-06T09:50:32;93766.00;;;12.32;100.00
52105;BME280;38103;42.776;23.112;2022-11-06T09:53:22;93766.03;;;12.37;100.00
52105;BME280;38103;42.776;23.112;2022-11-06T09:55:50;93766.03;;;12.37;100.00
52105;BME280;38103;42.776;23.112;2022-11-06T09:58:28;93775.03;;;12.31;100.00
52105;BME280;38103;42.776;23.112;2022-11-06T10:00:58;93776.50;;;12.22;100.00
52105;BME280;38103;42.776;23.112;2022-11-06T10:03:40;93778.66;;;12.25;100.00
52105;BME280;38103;42.776;23.112;2022-11-06T10:06:08;93769.56;;;12.15;100.00
52105;BME280;38103;42.776;23.112;2022-11-06T10:08:33;93765.16;;;12.04;100.00
52105;BME280;38103;42.776;23.112;2022-11-06T10:21:53;93776.31;;;11.61;100.00
52105;BME280;38103;42.776;23.112;2022-11-06T10:27:21;93757.72;;;11.56;100.00
52105;BME280;38103;42.776;23.112;2022-11-06T10:30:08;93778.28;;;11.48;100.00
52105;BME280;38103;42.776;23.112;2022-11-06T10:38:17;93772.84;;;11.38;100.00
52105;BME280;38103;42.776;23.112;2022-11-06T10:40:47;93767.34;;;11.45;100.00
52105;BME280;38103;42.776;23.112;2022-11-06T10:48:28;93770.00;;;11.45;100.00
52105;BME280;38103;42.776;23.112;2022-11-06T10:59:18;93762.38;;;11.48;100.00
52105;BME280;38103;42.776;23.112;2022-11-06T11:01:44;93765.09;;;11.54;100.00
52105;BME280;38103;42.776;23.112;2022-11-06T11:04:09;93763.94;;;11.67;100.00
52105;BME280;38103;42.776;23.112;2022-11-06T11:06:38;93762.66;;;11.69;100.00
52105;BME280;38103;42.776;23.112;2022-11-06T11:09:28;93764.44;;;11.64;100.00
52105;BME280;38103;42.776;23.112;2022-11-06T11:11:54;93752.88;;;11.70;100.00
52105;BME280;38103;42.776;23.112;2022-11-06T11:14:28;93761.59;;;11.70;100.00
52105;BME280;38103;42.776;23.112;2022-11-06T11:16:54;93757.84;;;11.66;100.00
52105;BME280;38103;42.776;23.112;2022-11-06T11:19:37;93755.19;;;11.66;100.00
52105;BME280;38103;42.776;23.112;2022-11-06T11:22:17;93763.94;;;11.67;100.00
52105;BME280;38103;42.776;23.112;2022-11-06T11:25:02;93756.69;;;11.57;100.00
52105;BME280;38103;42.776;23.112;2022-11-06T11:27:31;93762.47;;;11.54;100.00
52105;BME280;38103;42.776;23.112;2022-11-06T11:29:59;93764.97;;;11.43;100.00
52105;BME280;38103;42.776;23.112;2022-11-06T11:32:28;93760.28;;;11.50;100.00
52105;BME280;38103;42.776;23.112;2022-11-06T11:34:55;93706.34;;;11.12;100.00
52105;BME280;38103;42.776;23.112;2022-11-06T11:39:53;93752.78;;;11.42;100.00
52105;BME280;38103;42.776;23.112;2022-11-06T11:42:28;93765.59;;;11.50;100.00
52105;BME280;38103;42.776;23.112;2022-11-06T11:47:31;93764.78;;;11.50;100.00
52105;BME280;38103;42.776;23.112;2022-11-06T11:49:56;93766.63;;;11.49;100.00
52105;BME280;38103;42.776;23.112;2022-11-06T11:52:22;93763.75;;;11.51;100.00
52105;BME280;38103;42.776;23.112;2022-11-06T11:54:50;93761.59;;;11.48;100.00
52105;BME280;38103;42.776;23.112;2022-11-06T11:57:20;93758.06;;;11.42;100.00
52105;BME280;38103;42.776;23.112;2022-11-06T11:59:48;93764.56;;;11.51;100.00
52105;BME280;38103;42.776;23.112;2022-11-06T12:02:30;93747.00;;;11.45;100.00
52105;BME280;38103;42.776;23.112;2022-11-06T12:05:05;93758.31;;;11.63;100.00
52105;BME280;38103;42.776;23.112;2022-11-06T12:07:40;93760.63;;;11.54;100.00
52105;BME280;38103;42.776;23.112;2022-11-06T12:13:04;93759.81;;;11.54;100.00
52105;BME280;38103;42.776;23.112;2022-11-06T12:18:41;93753.53;;;11.60;100.00
52105;BME280;38103;42.776;23.112;2022-11-06T12:21:17;93754.31;;;11.60;100.00
52105;BME280;38103;42.776;23.112;2022-11-06T12:24:00;93760.44;;;11.61;100.00
52105;BME280;38103;42.776;23.112;2022-11-06T12:26:35;93753.03;;;11.63;100.00
52105;BME280;38103;42.776;23.112;2022-11-06T12:29:24;93647.19;;;11.01;100.00
52105;BME280;38103;42.776;23.112;2022-11-06T12:32:03;93750.56;;;11.79;100.00
52105;BME280;38103;42.776;23.112;2022-11-06T12:40:04;93725.38;;;11.54;100.00
52105;BME280;38103;42.776;23.112;2022-11-06T12:42:38;93766.47;;;11.79;100.00
52105;BME280;38103;42.776;23.112;2022-11-06T12:45:10;93761.47;;;11.82;100.00
52105;BME280;38103;42.776;23.112;2022-11-06T12:47:54;93768.06;;;11.80;100.00
52105;BME280;38103;42.776;23.112;2022-11-06T12:50:36;93756.28;;;11.70;100.00
52105;BME280;38103;42.776;23.112;2022-11-06T12:53:12;93764.38;;;11.81;100.00
52105;BME280;38103;42.776;23.112;2022-11-06T12:55:45;93756.47;;;11.86;98.50
52105;BME280;38103;42.776;23.112;2022-11-06T13:00:47;93761.84;;;11.91;96.76
52105;BME280;38103;42.776;23.112;2022-11-06T13:03:26;93765.56;;;11.90;97.08
52105;BME280;38103;42.776;23.112;2022-11-06T13:09:15;93763.56;;;12.03;98.41
52105;BME280;38103;42.776;23.112;2022-11-06T13:12:05;93758.88;;;12.10;97.18
52105;BME280;38103;42.776;23.112;2022-11-06T13:17:21;93767.31;;;12.07;96.36
52105;BME280;38103;42.776;23.112;2022-11-06T13:22:50;93771.41;;;12.15;96.91
52105;BME280;38103;42.776;23.112;2022-11-06T13:25:21;93776.34;;;12.11;97.12
52105;BME280;38103;42.776;23.112;2022-11-06T13:27:57;93771.84;;;12.12;95.34
52105;BME280;38103;42.776;23.112;2022-11-06T13:30:25;93748.66;;;11.96;95.61
52105;BME280;38103;42.776;23.112;2022-11-06T13:35:26;93779.19;;;12.04;94.81
52105;BME280;38103;42.776;23.112;2022-11-06T13:37:54;93777.31;;;12.00;95.40
52105;BME280;38103;42.776;23.112;2022-11-06T13:40:41;93782.94;;;12.09;95.24
52105;BME280;38103;42.776;23.112;2022-11-06T13:48:48;93789.00;;;12.04;95.33
52105;BME280;38103;42.776;23.112;2022-11-06T13:51:22;93784.50;;;12.04;95.65
52105;BME280;38103;42.776;23.112;2022-11-06T14:00:04;93802.06;;;11.88;96.90
52105;BME280;38103;42.776;23.112;2022-11-06T14:07:54;93806.75;;;11.81;97.92
52105;BME280;38103;42.776;23.112;2022-11-06T14:10:46;93804.16;;;11.86;98.56
52105;BME280;38103;42.776;23.112;2022-11-06T14:13:14;93797.69;;;11.77;99.50
52105;BME280;38103;42.776;23.112;2022-11-06T14:15:40;93801.44;;;11.81;99.61
52105;BME280;38103;42.776;23.112;2022-11-06T14:18:19;93754.88;;;11.40;100.00
52105;BME280;38103;42.776;23.112;2022-11-06T14:20:46;93811.00;;;11.82;100.00
52105;BME280;38103;42.776;23.112;2022-11-06T14:28:32;93810.94;;;11.77;100.00
52105;BME280;38103;42.776;23.112;2022-11-06T14:30:58;93805.16;;;11.80;100.00
52105;BME280;38103;42.776;23.112;2022-11-06T14:38:51;93807.88;;;11.85;100.00
52105;BME280;38103;42.776;23.112;2022-11-06T14:44:25;93809.59;;;11.96;99.32
52105;BME280;38103;42.776;23.112;2022-11-06T14:46:58;93811.50;;;12.01;98.60
52105;BME280;38103;42.776;23.112;2022-11-06T14:50:03;93817.25;;;12.15;97.88
52105;BME280;38103;42.776;23.112;2022-11-06T14:52:23;93819.22;;;12.03;98.21
52105;BME280;38103;42.776;23.112;2022-11-06T14:54:58;93830.28;;;12.00;98.47
52105;BME280;38103;42.776;23.112;2022-11-06T14:57:41;93825.00;;;12.00;98.25
52105;BME280;38103;42.776;23.112;2022-11-06T15:00:36;93833.22;;;11.81;98.88
52105;BME280;38103;42.776;23.112;2022-11-06T15:03:04;93834.09;;;11.64;99.78
52105;BME280;38103;42.776;23.112;2022-11-06T15:05:32;93836.66;;;11.59;100.00
52105;BME280;38103;42.776;23.112;2022-11-06T15:08:02;93841.97;;;11.42;100.00
52105;BME280;38103;42.776;23.112;2022-11-06T15:13:22;93839.97;;;11.32;100.00
52105;BME280;38103;42.776;23.112;2022-11-06T15:15:54;93844.22;;;11.33;100.00
52105;BME280;38103;42.776;23.112;2022-11-06T15:18:22;93834.50;;;11.21;100.00
52105;BME280;38103;42.776;23.112;2022-11-06T15:20:51;93835.19;;;11.28;100.00
52105;BME280;38103;42.776;23.112;2022-11-06T15:23:23;93845.97;;;11.27;100.00